sensor_id;sensor_type;location;lat;lon;timestamp;temperature;humidity
33837;DHT22;20140;49.356;8.812;2023-07-13T00:00:34;19.10;99.90
33837;DHT22;20140;49.356;8.812;2023-07-13T00:02:59;19.10;99.90
33837;DHT22;20140;49.356;8.812;2023-07-13T00:05:25;19.00;99.90
33837;DHT22;20140;49.356;8.812;2023-07-13T00:07:51;19.00;99.90
33837;DHT22;20140;49.356;8.812;2023-07-13T00:10:17;19.00;99.90
33837;DHT22;20140;49.356;8.812;2023-07-13T00:12:43;19.10;99.90
33837;DHT22;20140;49.356;8.812;2023-07-13T00:15:14;18.90;99.90
33837;DHT22;20140;49.356;8.812;2023-07-13T00:17:41;18.80;99.90
33837;DHT22;20140;49.356;8.812;2023-07-13T00:20:10;18.80;99.90
33837;DHT22;20140;49.356;8.812;2023-07-13T00:22:36;18.60;99.90
33837;DHT22;20140;49.356;8.812;2023-07-13T00:25:01;18.20;99.90
33837;DHT22;20140;49.356;8.812;2023-07-13T00:27:27;18.00;99.90
33837;DHT22;20140;49.356;8.812;2023-07-13T00:29:52;17.90;99.90
33837;DHT22;20140;49.356;8.812;2023-07-13T00:32:18;18.00;99.90
33837;DHT22;20140;49.356;8.812;2023-07-13T00:38:06;18.00;99.90
33837;DHT22;20140;49.356;8.812;2023-07-13T00:40:31;18.10;99.90
33837;DHT22;20140;49.356;8.812;2023-07-13T00:42:59;18.10;99.90
33837;DHT22;20140;49.356;8.812;2023-07-13T00:47:50;17.70;99.90
33837;DHT22;20140;49.356;8.812;2023-07-13T00:50:16;17.50;99.90
33837;DHT22;20140;49.356;8.812;2023-07-13T00:52:50;17.60;99.90
33837;DHT22;20140;49.356;8.812;2023-07-13T00:55:17;17.60;99.90
33837;DHT22;20140;49.356;8.812;2023-07-13T00:57:44;17.90;99.90
33837;DHT22;20140;49.356;8.812;2023-07-13T01:00:10;17.70;99.90
33837;DHT22;20140;49.356;8.812;2023-07-13T01:02:39;17.50;99.90
33837;DHT22;20140;49.356;8.812;2023-07-13T01:05:19;17.40;99.90
33837;DHT22;20140;49.356;8.812;2023-07-13T01:07:45;17.30;99.90
33837;DHT22;20140;49.356;8.812;2023-07-13T01:10:12;17.30;99.90
33837;DHT22;20140;49.356;8.812;2023-07-13T01:12:38;17.30;99.90
33837;DHT22;20140;49.356;8.812;2023-07-13T01:15:05;17.10;99.90
33837;DHT22;20140;49.356;8.812;2023-07-13T01:17:33;17.20;99.90
33837;DHT22;20140;49.356;8.812;2023-07-13T01:19:59;17.10;99.90
33837;DHT22;20140;49.356;8.812;2023-07-13T01:22:25;17.00;99.90
33837;DHT22;20140;49.356;8.812;2023-07-13T01:24:53;16.90;99.90
33837;DHT22;20140;49.356;8.812;2023-07-13T01:27:25;16.70;99.90
33837;DHT22;20140;49.356;8.812;2023-07-13T01:29:52;16.70;99.90
33837;DHT22;20140;49.356;8.812;2023-07-13T01:32:23;16.50;99.90
33837;DHT22;20140;49.356;8.812;2023-07-13T01:34:53;16.40;99.90
33837;DHT22;20140;49.356;8.812;2023-07-13T01:37:23;16.30;99.90
33837;DHT22;20140;49.356;8.812;2023-07-13T01:39:49;16.30;99.90
33837;DHT22;20140;49.356;8.812;2023-07-13T01:42:14;16.20;99.90
33837;DHT22;20140;49.356;8.812;2023-07-13T01:44:40;16.10;99.90
33837;DHT22;20140;49.356;8.812;2023-07-13T01:47:06;16.10;99.90
33837;DHT22;20140;49.356;8.812;2023-07-13T01:49:32;16.10;99.90
33837;DHT22;20140;49.356;8.812;2023-07-13T01:51:57;16.00;99.90
33837;DHT22;20140;49.356;8.812;2023-07-13T01:54:23;15.90;99.90
33837;DHT22;20140;49.356;8.812;2023-07-13T01:56:50;15.80;99.90
33837;DHT22;20140;49.356;8.812;2023-07-13T01:59:16;15.80;99.90
33837;DHT22;20140;49.356;8.812;2023-07-13T02:01:41;15.70;99.90
33837;DHT22;20140;49.356;8.812;2023-07-13T02:04:07;15.60;99.90
33837;DHT22;20140;49.356;8.812;2023-07-13T02:06:33;15.40;99.90
33837;DHT22;20140;49.356;8.812;2023-07-13T02:08:58;15.30;99.90
33837;DHT22;20140;49.356;8.812;2023-07-13T02:11:24;15.40;99.90
33837;DHT22;20140;49.356;8.812;2023-07-13T02:13:50;15.40;99.90
33837;DHT22;20140;49.356;8.812;2023-07-13T02:16:16;15.30;99.90
33837;DHT22;20140;49.356;8.812;2023-07-13T02:18:41;15.00;99.90
33837;DHT22;20140;49.356;8.812;2023-07-13T02:21:07;15.00;99.90
33837;DHT22;20140;49.356;8.812;2023-07-13T02:23:33;15.00;99.90
33837;DHT22;20140;49.356;8.812;2023-07-13T02:26:00;15.10;99.90
33837;DHT22;20140;49.356;8.812;2023-07-13T02:28:27;15.00;99.90
33837;DHT22;20140;49.356;8.812;2023-07-13T02:30:53;15.10;99.90
33837;DHT22;20140;49.356;8.812;2023-07-13T02:33:19;15.00;99.90
33837;DHT22;20140;49.356;8.812;2023-07-13T02:35:44;14.90;99.90
33837;DHT22;20140;49.356;8.812;2023-07-13T02:38:10;14.70;99.90
33837;DHT22;20140;49.356;8.812;2023-07-13T02:40:36;14.70;99.90
33837;DHT22;20140;49.356;8.812;2023-07-13T02:43:02;14.70;99.90
33837;DHT22;20140;49.356;8.812;2023-07-13T02:45:28;14.70;99.90
33837;DHT22;20140;49.356;8.812;2023-07-13T02:47:54;14.70;99.90
33837;DHT22;20140;49.356;8.812;2023-07-13T02:50:19;14.70;99.90
33837;DHT22;20140;49.356;8.812;2023-07-13T02:52:45;14.60;99.90
33837;DHT22;20140;49.356;8.812;2023-07-13T02:55:11;14.60;99.90
33837;DHT22;20140;49.356;8.812;2023-07-13T02:57:36;14.50;99.90
33837;DHT22;20140;49.356;8.812;2023-07-13T03:00:03;14.30;99.90
33837;DHT22;20140;49.356;8.812;2023-07-13T03:02:33;14.30;99.90
33837;DHT22;20140;49.356;8.812;2023-07-13T03:04:59;14.30;99.90
33837;DHT22;20140;49.356;8.812;2023-07-13T03:07:25;14.20;99.90
33837;DHT22;20140;49.356;8.812;2023-07-13T03:09:59;14.10;99.90
33837;DHT22;20140;49.356;8.812;2023-07-13T03:12:25;14.00;99.90
33837;DHT22;20140;49.356;8.812;2023-07-13T03:14:50;14.00;99.90
33837;DHT22;20140;49.356;8.812;2023-07-13T03:17:16;14.10;99.90
33837;DHT22;20140;49.356;8.812;2023-07-13T03:19:41;14.10;99.90
33837;DHT22;20140;49.356;8.812;2023-07-13T03:22:07;14.20;99.90
33837;DHT22;20140;49.356;8.812;2023-07-13T03:24:33;14.10;99.90
33837;DHT22;20140;49.356;8.812;2023-07-13T03:27:01;14.00;99.90
33837;DHT22;20140;49.356;8.812;2023-07-13T03:29:27;14.00;99.90
33837;DHT22;20140;49.356;8.812;2023-07-13T03:31:53;13.90;99.90
33837;DHT22;20140;49.356;8.812;2023-07-13T03:34:18;13.80;99.90
33837;DHT22;20140;49.356;8.812;2023-07-13T03:36:44;13.60;99.90
33837;DHT22;20140;49.356;8.812;2023-07-13T03:39:09;13.70;99.90
33837;DHT22;20140;49.356;8.812;2023-07-13T03:41:35;13.80;99.90
33837;DHT22;20140;49.356;8.812;2023-07-13T03:44:01;13.60;99.90
33837;DHT22;20140;49.356;8.812;2023-07-13T03:46:26;13.70;99.90
33837;DHT22;20140;49.356;8.812;2023-07-13T03:48:52;13.60;99.90
33837;DHT22;20140;49.356;8.812;2023-07-13T03:51:18;13.60;99.90
33837;DHT22;20140;49.356;8.812;2023-07-13T03:53:45;13.60;99.90
33837;DHT22;20140;49.356;8.812;2023-07-13T03:56:11;13.60;99.90
33837;DHT22;20140;49.356;8.812;2023-07-13T03:58:39;13.60;99.90
33837;DHT22;20140;49.356;8.812;2023-07-13T04:01:07;13.60;99.90
33837;DHT22;20140;49.356;8.812;2023-07-13T04:03:33;13.70;99.90
33837;DHT22;20140;49.356;8.812;2023-07-13T04:06:00;13.70;99.90
33837;DHT22;20140;49.356;8.812;2023-07-13T04:08:28;13.80;99.90
33837;DHT22;20140;49.356;8.812;2023-07-13T04:10:54;13.80;99.90
33837;DHT22;20140;49.356;8.812;2023-07-13T04:13:19;13.90;99.90
33837;DHT22;20140;49.356;8.812;2023-07-13T04:15:45;13.90;99.90
33837;DHT22;20140;49.356;8.812;2023-07-13T04:18:10;13.80;99.90
33837;DHT22;20140;49.356;8.812;2023-07-13T04:20:36;13.80;99.90
33837;DHT22;20140;49.356;8.812;2023-07-13T04:23:01;13.90;99.90
33837;DHT22;20140;49.356;8.812;2023-07-13T04:25:27;13.90;99.90
33837;DHT22;20140;49.356;8.812;2023-07-13T04:27:53;13.90;99.90
33837;DHT22;20140;49.356;8.812;2023-07-13T04:30:19;13.90;99.90
33837;DHT22;20140;49.356;8.812;2023-07-13T04:32:45;13.90;99.90
33837;DHT22;20140;49.356;8.812;2023-07-13T04:35:10;13.90;99.90
33837;DHT22;20140;49.356;8.812;2023-07-13T04:37:36;13.90;99.90
33837;DHT22;20140;49.356;8.812;2023-07-13T04:40:03;13.90;99.90
33837;DHT22;20140;49.356;8.812;2023-07-13T04:42:29;13.90;99.90
33837;DHT22;20140;49.356;8.812;2023-07-13T04:44:55;13.90;99.90
33837;DHT22;20140;49.356;8.812;2023-07-13T04:47:20;14.00;99.90
33837;DHT22;20140;49.356;8.812;2023-07-13T04:49:46;14.00;99.90
33837;DHT22;20140;49.356;8.812;2023-07-13T04:52:12;14.10;99.90
33837;DHT22;20140;49.356;8.812;2023-07-13T04:54:38;14.10;99.90
33837;DHT22;20140;49.356;8.812;2023-07-13T04:57:04;14.20;99.90
33837;DHT22;20140;49.356;8.812;2023-07-13T04:59:33;14.20;99.90
33837;DHT22;20140;49.356;8.812;2023-07-13T05:01:59;14.30;99.90
33837;DHT22;20140;49.356;8.812;2023-07-13T05:04:25;14.30;99.90
33837;DHT22;20140;49.356;8.812;2023-07-13T05:06:50;14.40;99.90
33837;DHT22;20140;49.356;8.812;2023-07-13T05:09:16;14.50;99.90
33837;DHT22;20140;49.356;8.812;2023-07-13T05:11:43;14.50;99.90
33837;DHT22;20140;49.356;8.812;2023-07-13T05:14:11;14.50;99.90
33837;DHT22;20140;49.356;8.812;2023-07-13T05:16:36;14.60;99.90
33837;DHT22;20140;49.356;8.812;2023-07-13T05:19:02;14.70;99.90
33837;DHT22;20140;49.356;8.812;2023-07-13T05:21:28;14.80;99.90
33837;DHT22;20140;49.356;8.812;2023-07-13T05:23:54;15.30;99.90
33837;DHT22;20140;49.356;8.812;2023-07-13T05:26:20;15.80;99.90
33837;DHT22;20140;49.356;8.812;2023-07-13T05:28:46;16.10;99.90
33837;DHT22;20140;49.356;8.812;2023-07-13T05:31:12;16.30;99.90
33837;DHT22;20140;49.356;8.812;2023-07-13T05:33:40;16.50;99.90
33837;DHT22;20140;49.356;8.812;2023-07-13T05:36:06;16.60;99.90
33837;DHT22;20140;49.356;8.812;2023-07-13T05:38:32;16.70;99.90
33837;DHT22;20140;49.356;8.812;2023-07-13T05:40:58;16.80;99.90
33837;DHT22;20140;49.356;8.812;2023-07-13T05:43:24;16.90;99.90
33837;DHT22;20140;49.356;8.812;2023-07-13T05:45:53;17.00;99.90
33837;DHT22;20140;49.356;8.812;2023-07-13T05:48:19;17.20;99.90
33837;DHT22;20140;49.356;8.812;2023-07-13T05:50:45;17.30;99.90
33837;DHT22;20140;49.356;8.812;2023-07-13T05:53:12;17.50;99.90
33837;DHT22;20140;49.356;8.812;2023-07-13T05:55:44;17.60;99.90
33837;DHT22;20140;49.356;8.812;2023-07-13T05:58:13;17.80;99.90
33837;DHT22;20140;49.356;8.812;2023-07-13T06:00:39;17.90;99.90
33837;DHT22;20140;49.356;8.812;2023-07-13T06:03:05;17.90;99.90
33837;DHT22;20140;49.356;8.812;2023-07-13T06:05:32;17.90;99.90
33837;DHT22;20140;49.356;8.812;2023-07-13T06:07:59;18.00;99.90
33837;DHT22;20140;49.356;8.812;2023-07-13T06:10:24;18.10;99.90
33837;DHT22;20140;49.356;8.812;2023-07-13T06:12:52;18.30;99.90
33837;DHT22;20140;49.356;8.812;2023-07-13T06:15:18;18.40;99.90
33837;DHT22;20140;49.356;8.812;2023-07-13T06:17:44;18.50;99.90
33837;DHT22;20140;49.356;8.812;2023-07-13T06:20:10;18.70;99.90
33837;DHT22;20140;49.356;8.812;2023-07-13T06:22:35;18.90;99.90
33837;DHT22;20140;49.356;8.812;2023-07-13T06:25:01;19.00;99.90
33837;DHT22;20140;49.356;8.812;2023-07-13T06:27:27;19.10;99.90
33837;DHT22;20140;49.356;8.812;2023-07-13T06:29:52;19.10;99.90
33837;DHT22;20140;49.356;8.812;2023-07-13T06:32:18;19.10;99.90
33837;DHT22;20140;49.356;8.812;2023-07-13T06:34:43;19.20;99.90
33837;DHT22;20140;49.356;8.812;2023-07-13T06:37:10;19.10;99.90
33837;DHT22;20140;49.356;8.812;2023-07-13T06:39:35;19.20;99.90
33837;DHT22;20140;49.356;8.812;2023-07-13T06:42:01;19.30;99.90
33837;DHT22;20140;49.356;8.812;2023-07-13T06:44:26;19.40;99.90
33837;DHT22;20140;49.356;8.812;2023-07-13T06:46:52;19.40;99.90
33837;DHT22;20140;49.356;8.812;2023-07-13T06:49:17;19.40;99.90
33837;DHT22;20140;49.356;8.812;2023-07-13T06:51:43;19.50;99.90
33837;DHT22;20140;49.356;8.812;2023-07-13T06:54:08;19.50;99.90
33837;DHT22;20140;49.356;8.812;2023-07-13T06:56:34;19.60;99.90
33837;DHT22;20140;49.356;8.812;2023-07-13T06:58:59;19.70;99.90
33837;DHT22;20140;49.356;8.812;2023-07-13T07:01:25;19.70;99.90
33837;DHT22;20140;49.356;8.812;2023-07-13T07:03:50;19.60;99.90
33837;DHT22;20140;49.356;8.812;2023-07-13T07:06:19;19.70;99.90
33837;DHT22;20140;49.356;8.812;2023-07-13T07:08:45;20.00;99.90
33837;DHT22;20140;49.356;8.812;2023-07-13T07:11:22;20.00;99.90
33837;DHT22;20140;49.356;8.812;2023-07-13T07:13:48;20.00;99.90
33837;DHT22;20140;49.356;8.812;2023-07-13T07:16:14;20.00;99.90
33837;DHT22;20140;49.356;8.812;2023-07-13T07:18:40;20.00;99.90
33837;DHT22;20140;49.356;8.812;2023-07-13T07:21:05;20.10;99.90
33837;DHT22;20140;49.356;8.812;2023-07-13T07:23:31;20.20;99.90
33837;DHT22;20140;49.356;8.812;2023-07-13T07:25:57;20.20;99.90
33837;DHT22;20140;49.356;8.812;2023-07-13T07:28:23;20.20;99.90
33837;DHT22;20140;49.356;8.812;2023-07-13T07:30:51;20.30;99.90
33837;DHT22;20140;49.356;8.812;2023-07-13T07:33:17;20.30;99.90
33837;DHT22;20140;49.356;8.812;2023-07-13T07:35:43;20.30;99.90
33837;DHT22;20140;49.356;8.812;2023-07-13T07:38:09;20.40;99.90
33837;DHT22;20140;49.356;8.812;2023-07-13T07:40:39;20.40;99.90
33837;DHT22;20140;49.356;8.812;2023-07-13T07:43:06;20.20;99.90
33837;DHT22;20140;49.356;8.812;2023-07-13T07:45:31;20.50;99.90
33837;DHT22;20140;49.356;8.812;2023-07-13T07:47:57;20.40;99.90
33837;DHT22;20140;49.356;8.812;2023-07-13T07:50:27;20.30;99.90
33837;DHT22;20140;49.356;8.812;2023-07-13T07:52:53;20.40;99.90
33837;DHT22;20140;49.356;8.812;2023-07-13T07:55:19;20.50;99.90
33837;DHT22;20140;49.356;8.812;2023-07-13T07:57:44;20.70;99.90
33837;DHT22;20140;49.356;8.812;2023-07-13T08:00:10;20.80;99.90
33837;DHT22;20140;49.356;8.812;2023-07-13T08:02:36;20.80;99.90
33837;DHT22;20140;49.356;8.812;2023-07-13T08:05:02;20.80;99.90
33837;DHT22;20140;49.356;8.812;2023-07-13T08:07:27;20.80;99.90
33837;DHT22;20140;49.356;8.812;2023-07-13T08:09:53;20.80;99.90
33837;DHT22;20140;49.356;8.812;2023-07-13T08:12:19;20.90;99.90
33837;DHT22;20140;49.356;8.812;2023-07-13T08:14:45;21.20;99.90
33837;DHT22;20140;49.356;8.812;2023-07-13T08:17:10;21.10;99.90
33837;DHT22;20140;49.356;8.812;2023-07-13T08:19:35;21.40;99.60
33837;DHT22;20140;49.356;8.812;2023-07-13T08:22:01;21.40;98.80
33837;DHT22;20140;49.356;8.812;2023-07-13T08:24:26;21.20;98.20
33837;DHT22;20140;49.356;8.812;2023-07-13T08:26:52;21.30;98.50
33837;DHT22;20140;49.356;8.812;2023-07-13T08:29:18;21.40;98.50
33837;DHT22;20140;49.356;8.812;2023-07-13T08:31:43;21.50;99.40
33837;DHT22;20140;49.356;8.812;2023-07-13T08:34:10;21.70;99.00
33837;DHT22;20140;49.356;8.812;2023-07-13T08:36:35;21.80;98.50
33837;DHT22;20140;49.356;8.812;2023-07-13T08:39:01;21.80;99.00
33837;DHT22;20140;49.356;8.812;2023-07-13T08:41:27;21.90;98.80
33837;DHT22;20140;49.356;8.812;2023-07-13T08:43:58;21.90;98.10
33837;DHT22;20140;49.356;8.812;2023-07-13T08:49:19;21.80;98.90
33837;DHT22;20140;49.356;8.812;2023-07-13T08:51:49;22.10;99.40
33837;DHT22;20140;49.356;8.812;2023-07-13T08:56:56;22.00;98.70
33837;DHT22;20140;49.356;8.812;2023-07-13T08:59:28;22.00;98.60
33837;DHT22;20140;49.356;8.812;2023-07-13T09:02:20;22.10;99.20
33837;DHT22;20140;49.356;8.812;2023-07-13T09:05:03;22.30;99.20
33837;DHT22;20140;49.356;8.812;2023-07-13T09:10:46;22.00;98.10
33837;DHT22;20140;49.356;8.812;2023-07-13T09:13:28;22.20;97.90
33837;DHT22;20140;49.356;8.812;2023-07-13T09:15:59;22.10;97.80
33837;DHT22;20140;49.356;8.812;2023-07-13T09:18:45;22.10;97.80
33837;DHT22;20140;49.356;8.812;2023-07-13T09:21:23;22.10;98.10
33837;DHT22;20140;49.356;8.812;2023-07-13T09:23:53;22.40;97.10
33837;DHT22;20140;49.356;8.812;2023-07-13T09:26:23;22.30;97.40
33837;DHT22;20140;49.356;8.812;2023-07-13T09:28:53;22.30;96.90
33837;DHT22;20140;49.356;8.812;2023-07-13T09:31:49;22.30;97.10
33837;DHT22;20140;49.356;8.812;2023-07-13T09:34:14;22.20;97.30
33837;DHT22;20140;49.356;8.812;2023-07-13T09:36:40;22.30;97.00
33837;DHT22;20140;49.356;8.812;2023-07-13T09:42:00;22.40;97.80
33837;DHT22;20140;49.356;8.812;2023-07-13T09:47:18;23.00;96.60
33837;DHT22;20140;49.356;8.812;2023-07-13T09:49:44;23.10;95.80
33837;DHT22;20140;49.356;8.812;2023-07-13T09:52:15;23.40;95.50
33837;DHT22;20140;49.356;8.812;2023-07-13T09:54:45;23.30;95.60
33837;DHT22;20140;49.356;8.812;2023-07-13T09:57:15;23.20;95.20
33837;DHT22;20140;49.356;8.812;2023-07-13T09:59:44;23.60;94.90
33837;DHT22;20140;49.356;8.812;2023-07-13T10:02:31;23.60;94.50
33837;DHT22;20140;49.356;8.812;2023-07-13T10:05:03;23.60;95.20
33837;DHT22;20140;49.356;8.812;2023-07-13T10:07:30;23.70;94.10
33837;DHT22;20140;49.356;8.812;2023-07-13T10:09:58;23.80;94.30
33837;DHT22;20140;49.356;8.812;2023-07-13T10:12:27;24.10;94.60
33837;DHT22;20140;49.356;8.812;2023-07-13T10:14:55;24.10;93.30
33837;DHT22;20140;49.356;8.812;2023-07-13T10:17:30;23.70;94.20
33837;DHT22;20140;49.356;8.812;2023-07-13T10:20:02;23.80;94.20
33837;DHT22;20140;49.356;8.812;2023-07-13T10:22:51;23.80;93.90
33837;DHT22;20140;49.356;8.812;2023-07-13T10:25:24;23.80;93.60
33837;DHT22;20140;49.356;8.812;2023-07-13T10:27:53;23.90;92.60
33837;DHT22;20140;49.356;8.812;2023-07-13T10:30:30;23.50;93.40
33837;DHT22;20140;49.356;8.812;2023-07-13T10:33:01;23.70;93.90
33837;DHT22;20140;49.356;8.812;2023-07-13T10:35:29;23.60;94.60
33837;DHT22;20140;49.356;8.812;2023-07-13T10:38:10;24.00;95.20
33837;DHT22;20140;49.356;8.812;2023-07-13T10:40:44;24.00;93.10
33837;DHT22;20140;49.356;8.812;2023-07-13T10:43:16;23.70;93.60
33837;DHT22;20140;49.356;8.812;2023-07-13T10:45:45;23.50;93.80
33837;DHT22;20140;49.356;8.812;2023-07-13T10:48:13;23.60;93.90
33837;DHT22;20140;49.356;8.812;2023-07-13T10:50:42;23.80;93.70
33837;DHT22;20140;49.356;8.812;2023-07-13T10:53:28;23.90;93.70
33837;DHT22;20140;49.356;8.812;2023-07-13T10:56:01;24.40;94.40
33837;DHT22;20140;49.356;8.812;2023-07-13T10:58:36;24.40;92.30
33837;DHT22;20140;49.356;8.812;2023-07-13T11:01:04;24.10;92.70
33837;DHT22;20140;49.356;8.812;2023-07-13T11:03:36;23.80;93.00
33837;DHT22;20140;49.356;8.812;2023-07-13T11:06:43;23.60;93.00
33837;DHT22;20140;49.356;8.812;2023-07-13T11:09:40;23.70;93.30
33837;DHT22;20140;49.356;8.812;2023-07-13T11:15:06;23.90;92.30
33837;DHT22;20140;49.356;8.812;2023-07-13T11:17:50;24.10;91.00
33837;DHT22;20140;49.356;8.812;2023-07-13T11:25:37;24.90;90.20
33837;DHT22;20140;49.356;8.812;2023-07-13T11:31:00;24.20;90.40
33837;DHT22;20140;49.356;8.812;2023-07-13T11:36:15;24.20;90.00
33837;DHT22;20140;49.356;8.812;2023-07-13T11:38:47;24.30;90.10
33837;DHT22;20140;49.356;8.812;2023-07-13T11:41:26;24.00;90.40
33837;DHT22;20140;49.356;8.812;2023-07-13T11:44:12;24.20;89.80
33837;DHT22;20140;49.356;8.812;2023-07-13T11:46:38;24.10;89.20
33837;DHT22;20140;49.356;8.812;2023-07-13T11:49:06;23.90;89.20
33837;DHT22;20140;49.356;8.812;2023-07-13T11:51:35;23.80;90.00
33837;DHT22;20140;49.356;8.812;2023-07-13T11:54:19;23.90;88.10
33837;DHT22;20140;49.356;8.812;2023-07-13T11:56:48;23.70;87.80
33837;DHT22;20140;49.356;8.812;2023-07-13T11:59:14;23.60;87.70
33837;DHT22;20140;49.356;8.812;2023-07-13T12:01:46;23.80;88.40
33837;DHT22;20140;49.356;8.812;2023-07-13T12:04:31;24.00;87.30
33837;DHT22;20140;49.356;8.812;2023-07-13T12:07:15;24.00;86.40
33837;DHT22;20140;49.356;8.812;2023-07-13T12:09:41;24.10;85.70
33837;DHT22;20140;49.356;8.812;2023-07-13T12:12:28;24.20;85.50
33837;DHT22;20140;49.356;8.812;2023-07-13T12:14:57;24.40;84.50
33837;DHT22;20140;49.356;8.812;2023-07-13T12:17:24;24.90;86.40
33837;DHT22;20140;49.356;8.812;2023-07-13T12:19:51;25.40;82.20
33837;DHT22;20140;49.356;8.812;2023-07-13T12:22:19;25.60;79.00
33837;DHT22;20140;49.356;8.812;2023-07-13T12:24:46;25.70;79.40
33837;DHT22;20140;49.356;8.812;2023-07-13T12:27:30;25.80;79.50
33837;DHT22;20140;49.356;8.812;2023-07-13T12:30:03;25.50;78.40
33837;DHT22;20140;49.356;8.812;2023-07-13T12:32:31;25.30;76.80
33837;DHT22;20140;49.356;8.812;2023-07-13T12:35:16;25.30;76.30
33837;DHT22;20140;49.356;8.812;2023-07-13T12:37:47;25.00;75.80
33837;DHT22;20140;49.356;8.812;2023-07-13T12:40:18;25.00;75.50
33837;DHT22;20140;49.356;8.812;2023-07-13T12:42:51;25.10;74.50
33837;DHT22;20140;49.356;8.812;2023-07-13T12:45:21;25.30;75.50
33837;DHT22;20140;49.356;8.812;2023-07-13T12:47:54;25.10;74.40
33837;DHT22;20140;49.356;8.812;2023-07-13T12:50:22;24.90;74.50
33837;DHT22;20140;49.356;8.812;2023-07-13T12:52:53;24.70;73.90
33837;DHT22;20140;49.356;8.812;2023-07-13T12:55:21;24.60;74.50
33837;DHT22;20140;49.356;8.812;2023-07-13T12:57:55;24.90;74.80
33837;DHT22;20140;49.356;8.812;2023-07-13T13:00:28;25.50;72.10
33837;DHT22;20140;49.356;8.812;2023-07-13T13:02:56;25.90;73.80
33837;DHT22;20140;49.356;8.812;2023-07-13T13:05:25;26.40;70.70
33837;DHT22;20140;49.356;8.812;2023-07-13T13:07:51;25.70;71.90
33837;DHT22;20140;49.356;8.812;2023-07-13T13:10:17;25.20;73.10
33837;DHT22;20140;49.356;8.812;2023-07-13T13:12:43;25.70;73.10
33837;DHT22;20140;49.356;8.812;2023-07-13T13:15:09;25.50;72.90
33837;DHT22;20140;49.356;8.812;2023-07-13T13:17:37;25.20;73.40
33837;DHT22;20140;49.356;8.812;2023-07-13T13:20:13;25.40;73.80
33837;DHT22;20140;49.356;8.812;2023-07-13T13:22:39;25.20;73.20
33837;DHT22;20140;49.356;8.812;2023-07-13T13:25:06;25.10;71.90
33837;DHT22;20140;49.356;8.812;2023-07-13T13:27:33;24.80;73.00
33837;DHT22;20140;49.356;8.812;2023-07-13T13:29:59;25.10;72.60
33837;DHT22;20140;49.356;8.812;2023-07-13T13:32:25;25.10;72.20
33837;DHT22;20140;49.356;8.812;2023-07-13T13:34:50;25.00;73.50
33837;DHT22;20140;49.356;8.812;2023-07-13T13:37:23;25.10;72.00
33837;DHT22;20140;49.356;8.812;2023-07-13T13:39:49;25.00;72.80
33837;DHT22;20140;49.356;8.812;2023-07-13T13:42:16;25.20;73.20
33837;DHT22;20140;49.356;8.812;2023-07-13T13:44:41;25.50;74.60
33837;DHT22;20140;49.356;8.812;2023-07-13T13:49:51;25.40;71.60
33837;DHT22;20140;49.356;8.812;2023-07-13T13:52:17;25.30;72.20
33837;DHT22;20140;49.356;8.812;2023-07-13T13:54:43;25.50;70.90
33837;DHT22;20140;49.356;8.812;2023-07-13T13:57:10;25.80;71.10
33837;DHT22;20140;49.356;8.812;2023-07-13T13:59:38;26.70;71.50
33837;DHT22;20140;49.356;8.812;2023-07-13T14:02:32;26.90;68.70
33837;DHT22;20140;49.356;8.812;2023-07-13T14:04:59;26.10;68.00
33837;DHT22;20140;49.356;8.812;2023-07-13T14:07:26;26.70;67.70
33837;DHT22;20140;49.356;8.812;2023-07-13T14:09:54;26.70;68.30
33837;DHT22;20140;49.356;8.812;2023-07-13T14:12:20;26.20;66.30
33837;DHT22;20140;49.356;8.812;2023-07-13T14:14:46;26.10;67.40
33837;DHT22;20140;49.356;8.812;2023-07-13T14:17:23;26.00;65.50
33837;DHT22;20140;49.356;8.812;2023-07-13T14:19:50;26.60;67.70
33837;DHT22;20140;49.356;8.812;2023-07-13T14:22:17;27.80;64.30
33837;DHT22;20140;49.356;8.812;2023-07-13T14:24:43;26.60;66.00
33837;DHT22;20140;49.356;8.812;2023-07-13T14:27:11;25.90;68.50
33837;DHT22;20140;49.356;8.812;2023-07-13T14:29:37;25.40;69.10
33837;DHT22;20140;49.356;8.812;2023-07-13T14:32:03;25.60;70.30
33837;DHT22;20140;49.356;8.812;2023-07-13T14:34:30;26.00;68.50
33837;DHT22;20140;49.356;8.812;2023-07-13T14:36:55;25.60;69.30
33837;DHT22;20140;49.356;8.812;2023-07-13T14:39:23;25.60;69.30
33837;DHT22;20140;49.356;8.812;2023-07-13T14:41:54;25.20;70.40
33837;DHT22;20140;49.356;8.812;2023-07-13T14:44:23;26.00;69.30
33837;DHT22;20140;49.356;8.812;2023-07-13T14:46:49;26.90;66.80
33837;DHT22;20140;49.356;8.812;2023-07-13T14:49:29;27.40;65.90
33837;DHT22;20140;49.356;8.812;2023-07-13T14:52:03;26.60;65.90
33837;DHT22;20140;49.356;8.812;2023-07-13T14:54:31;25.80;66.80
33837;DHT22;20140;49.356;8.812;2023-07-13T14:56:56;25.70;68.00
33837;DHT22;20140;49.356;8.812;2023-07-13T14:59:22;26.00;68.00
33837;DHT22;20140;49.356;8.812;2023-07-13T15:01:49;26.70;67.10
33837;DHT22;20140;49.356;8.812;2023-07-13T15:04:15;26.30;67.50
33837;DHT22;20140;49.356;8.812;2023-07-13T15:06:59;26.10;68.60
33837;DHT22;20140;49.356;8.812;2023-07-13T15:09:26;27.00;67.30
33837;DHT22;20140;49.356;8.812;2023-07-13T15:11:58;27.20;65.40
33837;DHT22;20140;49.356;8.812;2023-07-13T15:14:25;26.50;67.20
33837;DHT22;20140;49.356;8.812;2023-07-13T15:16:54;26.30;67.10
33837;DHT22;20140;49.356;8.812;2023-07-13T15:19:20;25.80;68.30
33837;DHT22;20140;49.356;8.812;2023-07-13T15:21:47;25.70;68.30
33837;DHT22;20140;49.356;8.812;2023-07-13T15:24:13;25.90;68.90
33837;DHT22;20140;49.356;8.812;2023-07-13T15:26:39;26.20;67.70
33837;DHT22;20140;49.356;8.812;2023-07-13T15:29:06;26.40;66.90
33837;DHT22;20140;49.356;8.812;2023-07-13T15:31:32;26.10;67.90
33837;DHT22;20140;49.356;8.812;2023-07-13T15:33:59;26.00;68.20
33837;DHT22;20140;49.356;8.812;2023-07-13T15:36:26;25.80;68.70
33837;DHT22;20140;49.356;8.812;2023-07-13T15:38:53;26.10;69.50
33837;DHT22;20140;49.356;8.812;2023-07-13T15:41:23;26.30;67.90
33837;DHT22;20140;49.356;8.812;2023-07-13T15:43:51;27.20;65.70
33837;DHT22;20140;49.356;8.812;2023-07-13T15:46:19;26.70;64.70
33837;DHT22;20140;49.356;8.812;2023-07-13T15:48:46;27.20;65.50
33837;DHT22;20140;49.356;8.812;2023-07-13T15:51:23;27.10;63.90
33837;DHT22;20140;49.356;8.812;2023-07-13T15:53:50;26.60;65.50
33837;DHT22;20140;49.356;8.812;2023-07-13T15:56:22;26.60;64.40
33837;DHT22;20140;49.356;8.812;2023-07-13T15:58:50;27.00;64.00
33837;DHT22;20140;49.356;8.812;2023-07-13T16:01:16;27.50;63.50
33837;DHT22;20140;49.356;8.812;2023-07-13T16:03:42;26.90;61.70
33837;DHT22;20140;49.356;8.812;2023-07-13T16:06:23;27.20;63.00
33837;DHT22;20140;49.356;8.812;2023-07-13T16:08:51;27.40;61.90
33837;DHT22;20140;49.356;8.812;2023-07-13T16:11:25;27.70;62.60
33837;DHT22;20140;49.356;8.812;2023-07-13T16:13:52;27.70;63.00